sensor_id;sensor_type;location;lat;lon;timestamp;P1;durP1;ratioP1;P2;durP2;ratioP2
41233;SDS011;26968;42.686;23.352;2023-05-24T00:01:15;19.73;;;8.88;;
41233;SDS011;26968;42.686;23.352;2023-05-24T00:03:51;18.77;;;8.52;;
41233;SDS011;26968;42.686;23.352;2023-05-24T00:06:17;20.85;;;8.50;;
41233;SDS011;26968;42.686;23.352;2023-05-24T00:08:45;18.00;;;8.80;;
41233;SDS011;26968;42.686;23.352;2023-05-24T00:11:11;21.80;;;9.65;;
41233;SDS011;26968;42.686;23.352;2023-05-24T00:13:37;21.40;;;8.73;;
41233;SDS011;26968;42.686;23.352;2023-05-24T00:16:02;21.15;;;8.35;;
41233;SDS011;26968;42.686;23.352;2023-05-24T00:18:28;21.45;;;8.88;;
41233;SDS011;26968;42.686;23.352;2023-05-24T00:20:56;22.20;;;8.35;;
41233;SDS011;26968;42.686;23.352;2023-05-24T00:23:23;22.20;;;9.55;;
41233;SDS011;26968;42.686;23.352;2023-05-24T00:25:49;26.58;;;9.50;;
41233;SDS011;26968;42.686;23.352;2023-05-24T00:28:15;19.00;;;8.55;;
41233;SDS011;26968;42.686;23.352;2023-05-24T00:30:40;17.15;;;8.38;;
41233;SDS011;26968;42.686;23.352;2023-05-24T00:33:06;27.55;;;9.32;;
41233;SDS011;26968;42.686;23.352;2023-05-24T00:35:31;18.52;;;8.93;;
41233;SDS011;26968;42.686;23.352;2023-05-24T00:37:57;20.88;;;8.57;;
41233;SDS011;26968;42.686;23.352;2023-05-24T00:40:22;15.85;;;8.15;;
41233;SDS011;26968;42.686;23.352;2023-05-24T00:42:48;19.63;;;8.80;;
41233;SDS011;26968;42.686;23.352;2023-05-24T00:45:14;17.65;;;9.02;;
41233;SDS011;26968;42.686;23.352;2023-05-24T00:47:39;23.73;;;8.18;;
41233;SDS011;26968;42.686;23.352;2023-05-24T00:50:06;19.30;;;8.48;;
41233;SDS011;26968;42.686;23.352;2023-05-24T00:52:34;17.75;;;8.18;;
41233;SDS011;26968;42.686;23.352;2023-05-24T00:55:00;16.98;;;8.13;;
41233;SDS011;26968;42.686;23.352;2023-05-24T00:57:26;16.92;;;8.45;;
41233;SDS011;26968;42.686;23.352;2023-05-24T00:59:53;14.23;;;7.65;;
41233;SDS011;26968;42.686;23.352;2023-05-24T01:02:20;18.83;;;8.30;;
41233;SDS011;26968;42.686;23.352;2023-05-24T01:04:45;18.75;;;7.50;;
41233;SDS011;26968;42.686;23.352;2023-05-24T01:15:10;14.10;;;8.55;;
41233;SDS011;26968;42.686;23.352;2023-05-24T01:17:51;15.38;;;7.55;;
41233;SDS011;26968;42.686;23.352;2023-05-24T01:20:25;15.75;;;7.05;;
41233;SDS011;26968;42.686;23.352;2023-05-24T01:28:10;13.63;;;7.30;;
41233;SDS011;26968;42.686;23.352;2023-05-24T01:30:40;17.67;;;8.70;;
41233;SDS011;26968;42.686;23.352;2023-05-24T01:33:06;19.05;;;7.78;;
41233;SDS011;26968;42.686;23.352;2023-05-24T01:35:32;20.17;;;7.97;;
41233;SDS011;26968;42.686;23.352;2023-05-24T01:40:29;22.65;;;7.63;;
41233;SDS011;26968;42.686;23.352;2023-05-24T01:42:56;15.10;;;8.63;;
41233;SDS011;26968;42.686;23.352;2023-05-24T01:50:58;16.67;;;8.00;;
41233;SDS011;26968;42.686;23.352;2023-05-24T01:53:28;12.13;;;7.22;;
41233;SDS011;26968;42.686;23.352;2023-05-24T01:55:57;17.83;;;8.13;;
41233;SDS011;26968;42.686;23.352;2023-05-24T01:58:26;14.07;;;7.43;;
41233;SDS011;26968;42.686;23.352;2023-05-24T02:00:54;16.15;;;7.75;;
41233;SDS011;26968;42.686;23.352;2023-05-24T02:03:20;14.77;;;7.40;;
41233;SDS011;26968;42.686;23.352;2023-05-24T02:05:46;15.75;;;7.63;;
41233;SDS011;26968;42.686;23.352;2023-05-24T02:08:11;18.75;;;7.75;;
41233;SDS011;26968;42.686;23.352;2023-05-24T02:10:38;17.70;;;7.22;;
41233;SDS011;26968;42.686;23.352;2023-05-24T02:13:04;13.48;;;6.65;;
41233;SDS011;26968;42.686;23.352;2023-05-24T02:15:30;13.52;;;7.10;;
41233;SDS011;26968;42.686;23.352;2023-05-24T02:17:56;12.10;;;6.60;;
41233;SDS011;26968;42.686;23.352;2023-05-24T02:20:22;12.13;;;7.70;;
41233;SDS011;26968;42.686;23.352;2023-05-24T02:22:48;17.67;;;8.25;;
41233;SDS011;26968;42.686;23.352;2023-05-24T02:25:13;18.75;;;8.55;;
41233;SDS011;26968;42.686;23.352;2023-05-24T02:27:39;16.10;;;7.78;;
41233;SDS011;26968;42.686;23.352;2023-05-24T02:30:06;11.50;;;7.32;;
41233;SDS011;26968;42.686;23.352;2023-05-24T02:32:31;15.48;;;7.40;;
41233;SDS011;26968;42.686;23.352;2023-05-24T02:34:58;14.32;;;7.85;;
41233;SDS011;26968;42.686;23.352;2023-05-24T02:37:25;12.23;;;7.25;;
41233;SDS011;26968;42.686;23.352;2023-05-24T02:39:51;16.38;;;8.43;;
41233;SDS011;26968;42.686;23.352;2023-05-24T02:42:17;11.88;;;7.30;;
41233;SDS011;26968;42.686;23.352;2023-05-24T02:44:42;13.73;;;7.97;;
41233;SDS011;26968;42.686;23.352;2023-05-24T02:47:11;20.70;;;7.72;;
41233;SDS011;26968;42.686;23.352;2023-05-24T02:49:37;12.52;;;7.95;;
41233;SDS011;26968;42.686;23.352;2023-05-24T02:52:03;17.00;;;8.40;;
41233;SDS011;26968;42.686;23.352;2023-05-24T02:54:29;18.90;;;7.75;;
41233;SDS011;26968;42.686;23.352;2023-05-24T02:56:54;15.63;;;7.80;;
41233;SDS011;26968;42.686;23.352;2023-05-24T02:59:20;17.02;;;8.00;;
41233;SDS011;26968;42.686;23.352;2023-05-24T03:01:47;22.30;;;8.10;;
41233;SDS011;26968;42.686;23.352;2023-05-24T03:04:12;18.10;;;8.70;;
41233;SDS011;26968;42.686;23.352;2023-05-24T03:06:37;15.77;;;7.47;;
41233;SDS011;26968;42.686;23.352;2023-05-24T03:09:03;16.58;;;8.48;;
41233;SDS011;26968;42.686;23.352;2023-05-24T03:11:30;19.92;;;9.52;;
41233;SDS011;26968;42.686;23.352;2023-05-24T03:13:55;18.88;;;9.43;;
41233;SDS011;26968;42.686;23.352;2023-05-24T03:16:20;22.30;;;8.88;;
41233;SDS011;26968;42.686;23.352;2023-05-24T03:18:46;15.23;;;7.20;;
41233;SDS011;26968;42.686;23.352;2023-05-24T03:21:14;16.73;;;8.68;;
41233;SDS011;26968;42.686;23.352;2023-05-24T03:23:40;14.15;;;7.97;;
41233;SDS011;26968;42.686;23.352;2023-05-24T03:26:05;16.60;;;8.25;;
41233;SDS011;26968;42.686;23.352;2023-05-24T03:28:31;20.80;;;8.23;;
41233;SDS011;26968;42.686;23.352;2023-05-24T03:30:57;14.85;;;8.18;;
41233;SDS011;26968;42.686;23.352;2023-05-24T03:33:23;22.98;;;8.52;;
41233;SDS011;26968;42.686;23.352;2023-05-24T03:35:49;18.98;;;8.32;;
41233;SDS011;26968;42.686;23.352;2023-05-24T03:38:14;17.77;;;8.88;;
41233;SDS011;26968;42.686;23.352;2023-05-24T03:40:40;17.90;;;8.75;;
41233;SDS011;26968;42.686;23.352;2023-05-24T03:43:05;17.67;;;9.57;;
41233;SDS011;26968;42.686;23.352;2023-05-24T03:45:31;22.63;;;9.73;;
41233;SDS011;26968;42.686;23.352;2023-05-24T03:47:56;26.33;;;10.00;;
41233;SDS011;26968;42.686;23.352;2023-05-24T03:50:22;21.90;;;9.93;;
41233;SDS011;26968;42.686;23.352;2023-05-24T03:52:48;19.45;;;9.82;;
41233;SDS011;26968;42.686;23.352;2023-05-24T03:55:13;19.55;;;9.45;;
41233;SDS011;26968;42.686;23.352;2023-05-24T03:57:40;27.30;;;10.85;;
41233;SDS011;26968;42.686;23.352;2023-05-24T04:00:07;24.85;;;10.15;;
41233;SDS011;26968;42.686;23.352;2023-05-24T04:02:34;22.25;;;9.65;;
41233;SDS011;26968;42.686;23.352;2023-05-24T04:05:02;25.80;;;9.32;;
41233;SDS011;26968;42.686;23.352;2023-05-24T04:07:28;23.90;;;8.63;;
41233;SDS011;26968;42.686;23.352;2023-05-24T04:09:57;20.67;;;8.48;;
41233;SDS011;26968;42.686;23.352;2023-05-24T04:12:23;28.08;;;7.93;;
41233;SDS011;26968;42.686;23.352;2023-05-24T04:14:49;19.15;;;8.63;;
41233;SDS011;26968;42.686;23.352;2023-05-24T04:17:15;23.00;;;8.07;;
41233;SDS011;26968;42.686;23.352;2023-05-24T04:19:41;24.08;;;8.98;;
41233;SDS011;26968;42.686;23.352;2023-05-24T04:22:06;20.40;;;8.45;;
41233;SDS011;26968;42.686;23.352;2023-05-24T04:24:32;30.25;;;9.00;;
41233;SDS011;26968;42.686;23.352;2023-05-24T04:26:57;17.13;;;8.30;;
41233;SDS011;26968;42.686;23.352;2023-05-24T04:29:23;32.83;;;9.70;;
41233;SDS011;26968;42.686;23.352;2023-05-24T04:31:51;18.15;;;8.20;;
41233;SDS011;26968;42.686;23.352;2023-05-24T04:34:17;23.02;;;8.57;;
41233;SDS011;26968;42.686;23.352;2023-05-24T04:36:46;16.15;;;8.73;;
41233;SDS011;26968;42.686;23.352;2023-05-24T04:39:13;15.15;;;8.48;;
41233;SDS011;26968;42.686;23.352;2023-05-24T04:41:39;21.95;;;9.93;;
41233;SDS011;26968;42.686;23.352;2023-05-24T04:44:05;29.67;;;9.88;;
41233;SDS011;26968;42.686;23.352;2023-05-24T04:46:31;29.52;;;9.38;;
41233;SDS011;26968;42.686;23.352;2023-05-24T04:48:59;16.90;;;9.60;;
41233;SDS011;26968;42.686;23.352;2023-05-24T04:51:26;46.50;;;10.00;;
41233;SDS011;26968;42.686;23.352;2023-05-24T04:53:51;24.02;;;9.57;;
41233;SDS011;26968;42.686;23.352;2023-05-24T04:56:17;21.05;;;8.98;;
41233;SDS011;26968;42.686;23.352;2023-05-24T04:58:43;23.95;;;8.75;;
41233;SDS011;26968;42.686;23.352;2023-05-24T05:01:09;15.07;;;8.45;;
41233;SDS011;26968;42.686;23.352;2023-05-24T05:03:35;16.13;;;9.05;;
41233;SDS011;26968;42.686;23.352;2023-05-24T05:06:00;16.67;;;9.45;;
41233;SDS011;26968;42.686;23.352;2023-05-24T05:08:26;17.23;;;9.18;;
41233;SDS011;26968;42.686;23.352;2023-05-24T05:10:51;16.95;;;10.00;;
41233;SDS011;26968;42.686;23.352;2023-05-24T05:13:16;18.80;;;10.30;;
41233;SDS011;26968;42.686;23.352;2023-05-24T05:15:42;22.05;;;10.57;;
41233;SDS011;26968;42.686;23.352;2023-05-24T05:18:08;23.40;;;10.90;;
41233;SDS011;26968;42.686;23.352;2023-05-24T05:20:34;18.85;;;10.32;;
41233;SDS011;26968;42.686;23.352;2023-05-24T05:22:59;25.27;;;10.60;;
41233;SDS011;26968;42.686;23.352;2023-05-24T05:25:24;17.48;;;9.90;;
41233;SDS011;26968;42.686;23.352;2023-05-24T05:27:50;23.80;;;12.05;;
41233;SDS011;26968;42.686;23.352;2023-05-24T05:30:15;20.90;;;11.18;;
41233;SDS011;26968;42.686;23.352;2023-05-24T05:32:41;28.20;;;12.38;;
41233;SDS011;26968;42.686;23.352;2023-05-24T05:35:06;24.15;;;12.00;;
41233;SDS011;26968;42.686;23.352;2023-05-24T05:37:32;24.50;;;12.68;;
41233;SDS011;26968;42.686;23.352;2023-05-24T05:39:58;23.88;;;12.23;;
41233;SDS011;26968;42.686;23.352;2023-05-24T05:42:23;17.48;;;10.60;;
41233;SDS011;26968;42.686;23.352;2023-05-24T05:44:49;24.48;;;11.20;;
41233;SDS011;26968;42.686;23.352;2023-05-24T05:47:14;22.48;;;11.02;;
41233;SDS011;26968;42.686;23.352;2023-05-24T05:49:40;20.85;;;10.30;;
41233;SDS011;26968;42.686;23.352;2023-05-24T05:52:05;22.58;;;9.23;;
41233;SDS011;26968;42.686;23.352;2023-05-24T05:54:31;15.80;;;9.80;;
41233;SDS011;26968;42.686;23.352;2023-05-24T05:56:56;14.93;;;9.27;;
41233;SDS011;26968;42.686;23.352;2023-05-24T05:59:22;25.60;;;9.98;;
41233;SDS011;26968;42.686;23.352;2023-05-24T06:01:47;19.50;;;9.35;;
41233;SDS011;26968;42.686;23.352;2023-05-24T06:04:16;16.60;;;9.30;;
41233;SDS011;26968;42.686;23.352;2023-05-24T06:06:42;18.55;;;9.82;;
41233;SDS011;26968;42.686;23.352;2023-05-24T06:09:15;14.48;;;8.70;;
41233;SDS011;26968;42.686;23.352;2023-05-24T06:11:41;20.13;;;9.88;;
41233;SDS011;26968;42.686;23.352;2023-05-24T06:14:09;25.58;;;9.52;;
41233;SDS011;26968;42.686;23.352;2023-05-24T06:16:37;25.33;;;10.32;;
41233;SDS011;26968;42.686;23.352;2023-05-24T06:19:07;18.60;;;9.35;;
41233;SDS011;26968;42.686;23.352;2023-05-24T06:21:32;25.58;;;10.07;;
41233;SDS011;26968;42.686;23.352;2023-05-24T06:24:00;24.63;;;11.07;;
41233;SDS011;26968;42.686;23.352;2023-05-24T06:26:26;18.40;;;10.73;;
41233;SDS011;26968;42.686;23.352;2023-05-24T06:28:52;20.10;;;9.65;;
41233;SDS011;26968;42.686;23.352;2023-05-24T06:31:17;16.50;;;9.60;;
41233;SDS011;26968;42.686;23.352;2023-05-24T06:33:43;19.30;;;10.13;;
41233;SDS011;26968;42.686;23.352;2023-05-24T06:36:08;20.63;;;9.68;;
41233;SDS011;26968;42.686;23.352;2023-05-24T06:38:34;15.52;;;9.77;;
41233;SDS011;26968;42.686;23.352;2023-05-24T06:41:00;20.23;;;9.57;;
41233;SDS011;26968;42.686;23.352;2023-05-24T06:43:26;20.05;;;9.38;;
41233;SDS011;26968;42.686;23.352;2023-05-24T06:45:51;24.42;;;9.55;;
41233;SDS011;26968;42.686;23.352;2023-05-24T06:48:16;28.08;;;9.48;;
41233;SDS011;26968;42.686;23.352;2023-05-24T06:50:42;17.33;;;9.18;;
41233;SDS011;26968;42.686;23.352;2023-05-24T06:53:08;21.38;;;9.73;;
41233;SDS011;26968;42.686;23.352;2023-05-24T06:55:35;18.88;;;10.85;;
41233;SDS011;26968;42.686;23.352;2023-05-24T06:58:01;15.90;;;8.27;;
41233;SDS011;26968;42.686;23.352;2023-05-24T07:00:26;20.60;;;9.23;;
41233;SDS011;26968;42.686;23.352;2023-05-24T07:02:52;18.85;;;8.50;;
41233;SDS011;26968;42.686;23.352;2023-05-24T07:05:17;17.58;;;9.88;;
41233;SDS011;26968;42.686;23.352;2023-05-24T07:07:43;18.10;;;9.23;;
41233;SDS011;26968;42.686;23.352;2023-05-24T07:10:09;23.17;;;9.30;;
41233;SDS011;26968;42.686;23.352;2023-05-24T07:12:38;20.90;;;9.40;;
41233;SDS011;26968;42.686;23.352;2023-05-24T07:15:04;12.50;;;7.25;;
41233;SDS011;26968;42.686;23.352;2023-05-24T07:17:31;44.42;;;11.40;;
41233;SDS011;26968;42.686;23.352;2023-05-24T07:19:56;21.70;;;10.93;;
41233;SDS011;26968;42.686;23.352;2023-05-24T07:22:22;20.23;;;11.02;;
41233;SDS011;26968;42.686;23.352;2023-05-24T07:24:49;24.95;;;10.20;;
41233;SDS011;26968;42.686;23.352;2023-05-24T07:27:15;23.35;;;10.25;;
41233;SDS011;26968;42.686;23.352;2023-05-24T07:29:41;20.52;;;10.88;;
41233;SDS011;26968;42.686;23.352;2023-05-24T07:32:06;20.60;;;9.70;;
41233;SDS011;26968;42.686;23.352;2023-05-24T07:34:32;20.05;;;10.02;;
41233;SDS011;26968;42.686;23.352;2023-05-24T07:36:58;20.30;;;8.68;;
41233;SDS011;26968;42.686;23.352;2023-05-24T07:39:25;28.50;;;9.27;;
41233;SDS011;26968;42.686;23.352;2023-05-24T07:41:52;24.30;;;10.73;;
41233;SDS011;26968;42.686;23.352;2023-05-24T07:44:18;22.50;;;10.10;;
41233;SDS011;26968;42.686;23.352;2023-05-24T07:46:44;19.70;;;8.80;;
41233;SDS011;26968;42.686;23.352;2023-05-24T07:49:09;25.95;;;9.43;;
41233;SDS011;26968;42.686;23.352;2023-05-24T07:51:35;12.20;;;6.97;;
41233;SDS011;26968;42.686;23.352;2023-05-24T07:54:01;14.20;;;7.90;;
41233;SDS011;26968;42.686;23.352;2023-05-24T07:56:26;25.00;;;9.90;;
41233;SDS011;26968;42.686;23.352;2023-05-24T07:58:51;21.85;;;10.73;;
41233;SDS011;26968;42.686;23.352;2023-05-24T08:01:21;22.42;;;9.85;;
41233;SDS011;26968;42.686;23.352;2023-05-24T08:03:46;24.92;;;9.50;;
41233;SDS011;26968;42.686;23.352;2023-05-24T08:06:12;16.55;;;7.55;;
41233;SDS011;26968;42.686;23.352;2023-05-24T08:08:38;19.30;;;7.90;;
41233;SDS011;26968;42.686;23.352;2023-05-24T08:11:04;12.05;;;7.65;;
41233;SDS011;26968;42.686;23.352;2023-05-24T08:13:30;26.33;;;7.55;;
41233;SDS011;26968;42.686;23.352;2023-05-24T08:15:55;18.30;;;8.10;;
41233;SDS011;26968;42.686;23.352;2023-05-24T08:18:22;23.35;;;8.50;;
41233;SDS011;26968;42.686;23.352;2023-05-24T08:20:47;21.50;;;7.63;;
41233;SDS011;26968;42.686;23.352;2023-05-24T08:23:13;17.60;;;8.75;;
41233;SDS011;26968;42.686;23.352;2023-05-24T08:25:38;20.55;;;8.07;;
41233;SDS011;26968;42.686;23.352;2023-05-24T08:28:04;15.38;;;6.25;;
41233;SDS011;26968;42.686;23.352;2023-05-24T08:30:30;12.20;;;5.50;;
41233;SDS011;26968;42.686;23.352;2023-05-24T08:32:56;8.45;;;3.88;;
41233;SDS011;26968;42.686;23.352;2023-05-24T08:35:22;15.65;;;7.38;;
41233;SDS011;26968;42.686;23.352;2023-05-24T08:37:48;18.50;;;6.03;;
41233;SDS011;26968;42.686;23.352;2023-05-24T08:40:13;12.20;;;5.00;;
41233;SDS011;26968;42.686;23.352;2023-05-24T08:42:39;16.08;;;5.15;;
41233;SDS011;26968;42.686;23.352;2023-05-24T08:45:12;9.70;;;4.80;;
41233;SDS011;26968;42.686;23.352;2023-05-24T08:47:38;6.93;;;4.05;;
41233;SDS011;26968;42.686;23.352;2023-05-24T08:50:05;7.70;;;4.70;;
41233;SDS011;26968;42.686;23.352;2023-05-24T08:52:31;16.33;;;4.70;;
41233;SDS011;26968;42.686;23.352;2023-05-24T08:54:57;9.77;;;4.28;;
41233;SDS011;26968;42.686;23.352;2023-05-24T08:57:25;10.75;;;4.20;;
41233;SDS011;26968;42.686;23.352;2023-05-24T08:59:51;11.35;;;4.00;;
41233;SDS011;26968;42.686;23.352;2023-05-24T09:02:20;4.93;;;3.47;;
41233;SDS011;26968;42.686;23.352;2023-05-24T09:04:47;9.02;;;3.22;;
41233;SDS011;26968;42.686;23.352;2023-05-24T09:07:15;7.47;;;3.67;;
41233;SDS011;26968;42.686;23.352;2023-05-24T09:09:44;10.35;;;4.18;;
41233;SDS011;26968;42.686;23.352;2023-05-24T09:12:13;6.30;;;3.75;;
41233;SDS011;26968;42.686;23.352;2023-05-24T09:14:45;7.15;;;3.47;;
41233;SDS011;26968;42.686;23.352;2023-05-24T09:17:12;6.72;;;4.00;;
41233;SDS011;26968;42.686;23.352;2023-05-24T09:19:44;8.38;;;3.95;;
41233;SDS011;26968;42.686;23.352;2023-05-24T09:22:12;6.43;;;4.10;;
41233;SDS011;26968;42.686;23.352;2023-05-24T09:24:42;15.32;;;4.05;;
41233;SDS011;26968;42.686;23.352;2023-05-24T09:27:08;9.65;;;4.22;;
41233;SDS011;26968;42.686;23.352;2023-05-24T09:29:34;7.13;;;3.00;;
41233;SDS011;26968;42.686;23.352;2023-05-24T09:32:01;7.32;;;3.75;;
41233;SDS011;26968;42.686;23.352;2023-05-24T09:34:28;7.65;;;4.30;;
41233;SDS011;26968;42.686;23.352;2023-05-24T09:36:54;11.52;;;4.07;;
41233;SDS011;26968;42.686;23.352;2023-05-24T09:39:20;6.20;;;3.40;;
41233;SDS011;26968;42.686;23.352;2023-05-24T09:41:51;7.20;;;2.85;;
41233;SDS011;26968;42.686;23.352;2023-05-24T09:44:24;9.05;;;3.63;;
41233;SDS011;26968;42.686;23.352;2023-05-24T09:46:53;4.90;;;3.63;;
41233;SDS011;26968;42.686;23.352;2023-05-24T09:49:25;7.15;;;3.67;;
41233;SDS011;26968;42.686;23.352;2023-05-24T09:51:50;9.90;;;3.72;;
41233;SDS011;26968;42.686;23.352;2023-05-24T09:54:16;5.45;;;3.10;;
41233;SDS011;26968;42.686;23.352;2023-05-24T09:56:42;7.68;;;3.03;;
41233;SDS011;26968;42.686;23.352;2023-05-24T09:59:11;9.02;;;3.05;;
41233;SDS011;26968;42.686;23.352;2023-05-24T10:01:38;5.40;;;3.03;;
41233;SDS011;26968;42.686;23.352;2023-05-24T10:04:03;5.95;;;2.95;;
41233;SDS011;26968;42.686;23.352;2023-05-24T10:06:32;9.70;;;3.03;;
41233;SDS011;26968;42.686;23.352;2023-05-24T10:09:01;5.03;;;3.17;;
41233;SDS011;26968;42.686;23.352;2023-05-24T10:11:32;5.22;;;3.05;;
41233;SDS011;26968;42.686;23.352;2023-05-24T10:14:01;8.70;;;3.55;;
41233;SDS011;26968;42.686;23.352;2023-05-24T10:16:28;6.03;;;2.92;;
41233;SDS011;26968;42.686;23.352;2023-05-24T10:18:54;4.45;;;2.92;;
41233;SDS011;26968;42.686;23.352;2023-05-24T10:21:20;4.28;;;2.55;;
41233;SDS011;26968;42.686;23.352;2023-05-24T10:23:49;5.75;;;2.67;;
41233;SDS011;26968;42.686;23.352;2023-05-24T10:26:16;6.22;;;2.67;;
41233;SDS011;26968;42.686;23.352;2023-05-24T10:28:44;5.63;;;2.95;;
41233;SDS011;26968;42.686;23.352;2023-05-24T10:33:53;4.35;;;2.58;;
41233;SDS011;26968;42.686;23.352;2023-05-24T10:36:22;9.35;;;3.00;;
41233;SDS011;26968;42.686;23.352;2023-05-24T10:38:50;4.47;;;3.20;;
41233;SDS011;26968;42.686;23.352;2023-05-24T10:41:16;7.55;;;2.80;;
41233;SDS011;26968;42.686;23.352;2023-05-24T10:43:44;9.38;;;2.85;;
41233;SDS011;26968;42.686;23.352;2023-05-24T10:46:12;4.85;;;2.58;;
41233;SDS011;26968;42.686;23.352;2023-05-24T10:48:40;7.70;;;2.80;;
41233;SDS011;26968;42.686;23.352;2023-05-24T10:53:57;6.45;;;3.03;;
41233;SDS011;26968;42.686;23.352;2023-05-24T10:56:22;6.40;;;2.83;;
41233;SDS011;26968;42.686;23.352;2023-05-24T11:01:31;5.15;;;2.53;;
41233;SDS011;26968;42.686;23.352;2023-05-24T11:09:21;3.78;;;2.85;;
41233;SDS011;26968;42.686;23.352;2023-05-24T11:11:47;6.50;;;2.35;;
41233;SDS011;26968;42.686;23.352;2023-05-24T11:14:26;7.55;;;3.22;;
41233;SDS011;26968;42.686;23.352;2023-05-24T11:16:53;6.15;;;3.00;;
41233;SDS011;26968;42.686;23.352;2023-05-24T11:19:20;3.33;;;2.53;;
41233;SDS011;26968;42.686;23.352;2023-05-24T11:21:48;5.50;;;2.97;;
41233;SDS011;26968;42.686;23.352;2023-05-24T11:24:18;3.75;;;2.72;;
41233;SDS011;26968;42.686;23.352;2023-05-24T11:26:44;5.10;;;3.38;;
41233;SDS011;26968;42.686;23.352;2023-05-24T11:29:14;6.18;;;2.70;;
41233;SDS011;26968;42.686;23.352;2023-05-24T11:34:16;9.45;;;2.92;;
41233;SDS011;26968;42.686;23.352;2023-05-24T11:36:43;8.60;;;2.97;;
41233;SDS011;26968;42.686;23.352;2023-05-24T11:39:09;4.43;;;2.60;;
41233;SDS011;26968;42.686;23.352;2023-05-24T11:41:37;6.88;;;3.15;;
41233;SDS011;26968;42.686;23.352;2023-05-24T11:44:03;5.47;;;2.75;;
41233;SDS011;26968;42.686;23.352;2023-05-24T11:46:30;7.00;;;2.90;;
41233;SDS011;26968;42.686;23.352;2023-05-24T11:48:56;5.20;;;2.60;;
41233;SDS011;26968;42.686;23.352;2023-05-24T11:51:32;5.22;;;2.60;;
41233;SDS011;26968;42.686;23.352;2023-05-24T11:53:58;5.13;;;2.45;;
41233;SDS011;26968;42.686;23.352;2023-05-24T11:56:25;6.38;;;2.40;;
41233;SDS011;26968;42.686;23.352;2023-05-24T11:58:58;3.50;;;2.25;;
41233;SDS011;26968;42.686;23.352;2023-05-24T12:01:30;4.38;;;2.30;;
41233;SDS011;26968;42.686;23.352;2023-05-24T12:03:57;4.32;;;2.80;;
41233;SDS011;26968;42.686;23.352;2023-05-24T12:06:22;7.97;;;2.80;;
41233;SDS011;26968;42.686;23.352;2023-05-24T12:08:48;4.10;;;2.55;;
41233;SDS011;26968;42.686;23.352;2023-05-24T12:11:15;6.72;;;2.30;;
41233;SDS011;26968;42.686;23.352;2023-05-24T12:13:41;5.38;;;2.97;;
41233;SDS011;26968;42.686;23.352;2023-05-24T12:16:09;8.35;;;2.97;;
41233;SDS011;26968;42.686;23.352;2023-05-24T12:18:35;6.95;;;3.20;;
41233;SDS011;26968;42.686;23.352;2023-05-24T12:21:02;6.85;;;2.70;;
41233;SDS011;26968;42.686;23.352;2023-05-24T12:23:32;5.47;;;3.05;;
41233;SDS011;26968;42.686;23.352;2023-05-24T12:25:59;6.63;;;2.50;;
41233;SDS011;26968;42.686;23.352;2023-05-24T12:28:26;5.60;;;2.75;;
41233;SDS011;26968;42.686;23.352;2023-05-24T12:30:52;6.55;;;3.10;;
41233;SDS011;26968;42.686;23.352;2023-05-24T12:33:18;5.45;;;2.50;;
41233;SDS011;26968;42.686;23.352;2023-05-24T12:35:45;5.82;;;2.67;;
41233;SDS011;26968;42.686;23.352;2023-05-24T12:38:11;5.35;;;3.00;;
41233;SDS011;26968;42.686;23.352;2023-05-24T12:40:40;4.55;;;2.80;;
41233;SDS011;26968;42.686;23.352;2023-05-24T12:45:34;4.25;;;2.80;;
41233;SDS011;26968;42.686;23.352;2023-05-24T12:48:01;9.15;;;3.38;;
41233;SDS011;26968;42.686;23.352;2023-05-24T12:50:28;4.15;;;2.92;;
41233;SDS011;26968;42.686;23.352;2023-05-24T12:52:55;5.07;;;3.05;;
41233;SDS011;26968;42.686;23.352;2023-05-24T12:55:22;5.47;;;2.97;;
41233;SDS011;26968;42.686;23.352;2023-05-24T12:57:50;5.85;;;2.42;;
41233;SDS011;26968;42.686;23.352;2023-05-24T13:00:29;5.57;;;2.33;;
41233;SDS011;26968;42.686;23.352;2023-05-24T13:02:55;9.35;;;3.22;;
41233;SDS011;26968;42.686;23.352;2023-05-24T13:05:23;5.60;;;2.90;;
41233;SDS011;26968;42.686;23.352;2023-05-24T13:07:49;5.25;;;2.72;;
41233;SDS011;26968;42.686;23.352;2023-05-24T13:10:15;5.75;;;2.95;;
41233;SDS011;26968;42.686;23.352;2023-05-24T13:12:41;6.85;;;2.97;;
41233;SDS011;26968;42.686;23.352;2023-05-24T13:15:07;5.18;;;3.00;;
41233;SDS011;26968;42.686;23.352;2023-05-24T13:17:33;5.30;;;2.65;;
41233;SDS011;26968;42.686;23.352;2023-05-24T13:20:00;4.13;;;2.72;;
41233;SDS011;26968;42.686;23.352;2023-05-24T13:22:29;5.57;;;2.85;;
41233;SDS011;26968;42.686;23.352;2023-05-24T13:24:55;5.40;;;2.90;;
41233;SDS011;26968;42.686;23.352;2023-05-24T13:27:20;3.95;;;2.70;;
41233;SDS011;26968;42.686;23.352;2023-05-24T13:29:46;7.40;;;2.80;;
41233;SDS011;26968;42.686;23.352;2023-05-24T13:32:12;10.10;;;2.60;;
41233;SDS011;26968;42.686;23.352;2023-05-24T13:34:38;4.68;;;2.40;;
41233;SDS011;26968;42.686;23.352;2023-05-24T13:37:03;6.82;;;3.00;;
41233;SDS011;26968;42.686;23.352;2023-05-24T13:39:29;8.00;;;3.25;;
41233;SDS011;26968;42.686;23.352;2023-05-24T13:41:54;5.88;;;3.47;;
41233;SDS011;26968;42.686;23.352;2023-05-24T13:44:20;9.35;;;3.20;;
41233;SDS011;26968;42.686;23.352;2023-05-24T13:46:46;5.72;;;3.20;;
41233;SDS011;26968;42.686;23.352;2023-05-24T13:49:11;12.68;;;4.03;;
41233;SDS011;26968;42.686;23.352;2023-05-24T13:51:37;6.68;;;4.28;;
41233;SDS011;26968;42.686;23.352;2023-05-24T13:54:03;9.20;;;3.70;;
41233;SDS011;26968;42.686;23.352;2023-05-24T13:56:31;7.45;;;3.30;;
41233;SDS011;26968;42.686;23.352;2023-05-24T13:58:58;4.80;;;3.17;;
41233;SDS011;26968;42.686;23.352;2023-05-24T14:01:28;9.50;;;3.73;;
41233;SDS011;26968;42.686;23.352;2023-05-24T14:03:54;7.47;;;3.63;;
41233;SDS011;26968;42.686;23.352;2023-05-24T14:06:19;7.85;;;4.63;;
41233;SDS011;26968;42.686;23.352;2023-05-24T14:08:46;10.40;;;4.05;;
41233;SDS011;26968;42.686;23.352;2023-05-24T14:11:12;4.93;;;3.58;;
41233;SDS011;26968;42.686;23.352;2023-05-24T14:13:41;7.60;;;3.92;;
41233;SDS011;26968;42.686;23.352;2023-05-24T14:16:07;6.90;;;4.03;;
41233;SDS011;26968;42.686;23.352;2023-05-24T14:18:33;6.75;;;3.65;;
41233;SDS011;26968;42.686;23.352;2023-05-24T14:21:00;7.38;;;3.63;;
41233;SDS011;26968;42.686;23.352;2023-05-24T14:23:26;6.93;;;4.05;;
41233;SDS011;26968;42.686;23.352;2023-05-24T14:25:54;5.72;;;3.47;;
41233;SDS011;26968;42.686;23.352;2023-05-24T14:28:19;11.40;;;3.60;;
41233;SDS011;26968;42.686;23.352;2023-05-24T14:30:45;9.45;;;3.97;;
41233;SDS011;26968;42.686;23.352;2023-05-24T14:33:10;6.55;;;3.95;;
41233;SDS011;26968;42.686;23.352;2023-05-24T14:35:37;9.68;;;3.65;;
41233;SDS011;26968;42.686;23.352;2023-05-24T14:38:07;6.60;;;3.30;;
41233;SDS011;26968;42.686;23.352;2023-05-24T14:40:33;12.68;;;3.80;;
41233;SDS011;26968;42.686;23.352;2023-05-24T14:43:00;8.70;;;4.40;;
41233;SDS011;26968;42.686;23.352;2023-05-24T14:45:26;7.88;;;4.10;;
41233;SDS011;26968;42.686;23.352;2023-05-24T14:47:52;9.07;;;3.63;;
41233;SDS011;26968;42.686;23.352;2023-05-24T14:50:17;8.88;;;4.00;;
41233;SDS011;26968;42.686;23.352;2023-05-24T14:52:43;5.50;;;3.60;;
41233;SDS011;26968;42.686;23.352;2023-05-24T14:55:08;10.07;;;3.90;;
41233;SDS011;26968;42.686;23.352;2023-05-24T14:57:34;12.35;;;3.88;;
41233;SDS011;26968;42.686;23.352;2023-05-24T15:00:00;9.88;;;3.85;;
41233;SDS011;26968;42.686;23.352;2023-05-24T15:02:27;8.15;;;4.40;;